sensor_id;sensor_type;location;lat;lon;timestamp;temperature;humidity
7472;DHT22;3777;48.722;8.110;2022-09-09T00:00:47;18.50;99.90
7472;DHT22;3777;48.722;8.110;2022-09-09T00:03:17;18.40;99.90
7472;DHT22;3777;48.722;8.110;2022-09-09T00:05:51;18.40;99.90
7472;DHT22;3777;48.722;8.110;2022-09-09T00:08:28;18.40;99.90
7472;DHT22;3777;48.722;8.110;2022-09-09T00:11:01;18.50;99.90
7472;DHT22;3777;48.722;8.110;2022-09-09T00:13:34;18.50;99.90
7472;DHT22;3777;48.722;8.110;2022-09-09T00:16:09;18.50;99.90
7472;DHT22;3777;48.722;8.110;2022-09-09T00:18:48;18.50;99.90
7472;DHT22;3777;48.722;8.110;2022-09-09T00:21:18;18.40;99.90
7472;DHT22;3777;48.722;8.110;2022-09-09T00:23:50;18.40;99.90
7472;DHT22;3777;48.722;8.110;2022-09-09T00:26:22;18.40;99.90
7472;DHT22;3777;48.722;8.110;2022-09-09T00:29:03;18.40;99.90
7472;DHT22;3777;48.722;8.110;2022-09-09T00:31:32;18.40;99.90
7472;DHT22;3777;48.722;8.110;2022-09-09T00:34:03;18.40;99.90
7472;DHT22;3777;48.722;8.110;2022-09-09T00:36:32;18.40;99.90
7472;DHT22;3777;48.722;8.110;2022-09-09T00:39:02;18.40;99.90
7472;DHT22;3777;48.722;8.110;2022-09-09T00:41:36;18.40;99.90
7472;DHT22;3777;48.722;8.110;2022-09-09T00:44:19;18.40;99.90
7472;DHT22;3777;48.722;8.110;2022-09-09T00:46:55;18.30;99.90
7472;DHT22;3777;48.722;8.110;2022-09-09T00:49:33;18.30;99.90
7472;DHT22;3777;48.722;8.110;2022-09-09T00:52:12;18.30;99.90
7472;DHT22;3777;48.722;8.110;2022-09-09T00:54:51;18.30;99.90
7472;DHT22;3777;48.722;8.110;2022-09-09T00:57:26;18.40;99.90
7472;DHT22;3777;48.722;8.110;2022-09-09T01:00:14;18.30;99.90
7472;DHT22;3777;48.722;8.110;2022-09-09T01:02:57;18.30;99.90
7472;DHT22;3777;48.722;8.110;2022-09-09T01:05:33;18.20;99.90
7472;DHT22;3777;48.722;8.110;2022-09-09T01:08:05;18.20;99.90
7472;DHT22;3777;48.722;8.110;2022-09-09T01:10:41;18.30;99.90
7472;DHT22;3777;48.722;8.110;2022-09-09T01:13:15;18.20;99.90
7472;DHT22;3777;48.722;8.110;2022-09-09T01:15:44;18.20;99.90
7472;DHT22;3777;48.722;8.110;2022-09-09T01:18:15;18.10;99.90
7472;DHT22;3777;48.722;8.110;2022-09-09T01:20:49;18.10;99.90
7472;DHT22;3777;48.722;8.110;2022-09-09T01:23:38;18.10;99.90
7472;DHT22;3777;48.722;8.110;2022-09-09T01:26:16;18.10;99.90
7472;DHT22;3777;48.722;8.110;2022-09-09T01:28:46;17.80;99.90
7472;DHT22;3777;48.722;8.110;2022-09-09T01:31:17;17.50;99.90
7472;DHT22;3777;48.722;8.110;2022-09-09T01:33:46;17.50;99.90
7472;DHT22;3777;48.722;8.110;2022-09-09T01:36:20;17.40;99.90
7472;DHT22;3777;48.722;8.110;2022-09-09T01:38:48;17.20;99.90
7472;DHT22;3777;48.722;8.110;2022-09-09T01:41:16;17.00;99.90
7472;DHT22;3777;48.722;8.110;2022-09-09T01:43:43;16.80;99.90
7472;DHT22;3777;48.722;8.110;2022-09-09T01:46:12;16.60;99.90
7472;DHT22;3777;48.722;8.110;2022-09-09T01:48:39;16.50;99.90
7472;DHT22;3777;48.722;8.110;2022-09-09T01:51:08;16.50;99.90
7472;DHT22;3777;48.722;8.110;2022-09-09T01:53:36;16.40;99.90
7472;DHT22;3777;48.722;8.110;2022-09-09T01:56:11;16.30;99.90
7472;DHT22;3777;48.722;8.110;2022-09-09T01:58:54;16.40;99.90
7472;DHT22;3777;48.722;8.110;2022-09-09T02:01:28;16.40;99.90
7472;DHT22;3777;48.722;8.110;2022-09-09T02:04:02;16.50;99.90
7472;DHT22;3777;48.722;8.110;2022-09-09T02:06:34;16.50;99.90
7472;DHT22;3777;48.722;8.110;2022-09-09T02:09:05;16.50;99.90
7472;DHT22;3777;48.722;8.110;2022-09-09T02:11:32;16.60;99.90
7472;DHT22;3777;48.722;8.110;2022-09-09T02:14:04;16.70;99.90
7472;DHT22;3777;48.722;8.110;2022-09-09T02:16:37;16.80;99.90
7472;DHT22;3777;48.722;8.110;2022-09-09T02:19:09;16.80;99.90
7472;DHT22;3777;48.722;8.110;2022-09-09T02:21:39;16.90;99.90
7472;DHT22;3777;48.722;8.110;2022-09-09T02:24:08;17.00;99.90
7472;DHT22;3777;48.722;8.110;2022-09-09T02:26:39;17.00;99.90
7472;DHT22;3777;48.722;8.110;2022-09-09T02:29:11;17.00;99.90
7472;DHT22;3777;48.722;8.110;2022-09-09T02:31:41;17.10;99.90
7472;DHT22;3777;48.722;8.110;2022-09-09T02:34:10;17.10;99.90
7472;DHT22;3777;48.722;8.110;2022-09-09T02:36:39;17.10;99.90
7472;DHT22;3777;48.722;8.110;2022-09-09T02:39:08;17.20;99.90
7472;DHT22;3777;48.722;8.110;2022-09-09T02:41:39;17.10;99.90
7472;DHT22;3777;48.722;8.110;2022-09-09T02:44:11;17.10;99.90
7472;DHT22;3777;48.722;8.110;2022-09-09T02:47:05;17.10;99.90
7472;DHT22;3777;48.722;8.110;2022-09-09T02:49:45;17.10;99.90
7472;DHT22;3777;48.722;8.110;2022-09-09T02:52:17;17.10;99.90
7472;DHT22;3777;48.722;8.110;2022-09-09T02:54:45;17.10;99.90
7472;DHT22;3777;48.722;8.110;2022-09-09T02:57:17;17.10;99.90
7472;DHT22;3777;48.722;8.110;2022-09-09T02:59:48;17.00;99.90
7472;DHT22;3777;48.722;8.110;2022-09-09T03:02:15;17.00;99.90
7472;DHT22;3777;48.722;8.110;2022-09-09T03:04:44;17.00;99.90
7472;DHT22;3777;48.722;8.110;2022-09-09T03:07:16;17.00;99.90
7472;DHT22;3777;48.722;8.110;2022-09-09T03:09:43;17.10;99.90
7472;DHT22;3777;48.722;8.110;2022-09-09T03:12:10;17.00;99.90
7472;DHT22;3777;48.722;8.110;2022-09-09T03:14:37;16.80;99.90
7472;DHT22;3777;48.722;8.110;2022-09-09T03:17:06;16.60;99.90
7472;DHT22;3777;48.722;8.110;2022-09-09T03:19:34;16.50;99.90
7472;DHT22;3777;48.722;8.110;2022-09-09T03:22:03;16.50;99.90
7472;DHT22;3777;48.722;8.110;2022-09-09T03:24:30;16.40;99.90
7472;DHT22;3777;48.722;8.110;2022-09-09T03:26:57;16.40;99.90
7472;DHT22;3777;48.722;8.110;2022-09-09T03:29:24;16.30;99.90
7472;DHT22;3777;48.722;8.110;2022-09-09T03:31:51;16.30;99.90
7472;DHT22;3777;48.722;8.110;2022-09-09T03:34:19;16.30;99.90
7472;DHT22;3777;48.722;8.110;2022-09-09T03:36:46;16.40;99.90
7472;DHT22;3777;48.722;8.110;2022-09-09T03:39:14;16.40;99.90
7472;DHT22;3777;48.722;8.110;2022-09-09T03:41:41;16.40;99.90
7472;DHT22;3777;48.722;8.110;2022-09-09T03:44:10;16.50;99.90
7472;DHT22;3777;48.722;8.110;2022-09-09T03:46:37;16.60;99.90
7472;DHT22;3777;48.722;8.110;2022-09-09T03:49:04;16.60;99.90
7472;DHT22;3777;48.722;8.110;2022-09-09T03:51:33;16.70;99.90
7472;DHT22;3777;48.722;8.110;2022-09-09T03:54:02;16.70;99.90
7472;DHT22;3777;48.722;8.110;2022-09-09T03:56:30;16.70;99.90
7472;DHT22;3777;48.722;8.110;2022-09-09T03:58:58;16.70;99.90
7472;DHT22;3777;48.722;8.110;2022-09-09T04:01:25;16.70;99.90
7472;DHT22;3777;48.722;8.110;2022-09-09T04:03:52;16.60;99.90
7472;DHT22;3777;48.722;8.110;2022-09-09T04:06:19;16.60;99.90
7472;DHT22;3777;48.722;8.110;2022-09-09T04:08:48;16.60;99.90
7472;DHT22;3777;48.722;8.110;2022-09-09T04:11:15;16.60;99.90
7472;DHT22;3777;48.722;8.110;2022-09-09T04:13:42;16.50;99.90
7472;DHT22;3777;48.722;8.110;2022-09-09T04:16:11;16.50;99.90
7472;DHT22;3777;48.722;8.110;2022-09-09T04:18:38;16.40;99.90
7472;DHT22;3777;48.722;8.110;2022-09-09T04:21:06;16.40;99.90
7472;DHT22;3777;48.722;8.110;2022-09-09T04:23:33;16.40;99.90
7472;DHT22;3777;48.722;8.110;2022-09-09T04:26:03;16.40;99.90
7472;DHT22;3777;48.722;8.110;2022-09-09T04:28:33;16.40;99.90
7472;DHT22;3777;48.722;8.110;2022-09-09T04:31:05;16.40;99.90
7472;DHT22;3777;48.722;8.110;2022-09-09T04:33:32;16.40;99.90
7472;DHT22;3777;48.722;8.110;2022-09-09T04:35:59;16.40;99.90
7472;DHT22;3777;48.722;8.110;2022-09-09T04:38:26;16.40;99.90
7472;DHT22;3777;48.722;8.110;2022-09-09T04:40:53;16.40;99.90
7472;DHT22;3777;48.722;8.110;2022-09-09T04:43:22;16.40;99.90
7472;DHT22;3777;48.722;8.110;2022-09-09T04:45:51;16.40;99.90
7472;DHT22;3777;48.722;8.110;2022-09-09T04:48:18;16.50;99.90
7472;DHT22;3777;48.722;8.110;2022-09-09T04:50:54;16.50;99.90
7472;DHT22;3777;48.722;8.110;2022-09-09T04:53:21;16.50;99.90
7472;DHT22;3777;48.722;8.110;2022-09-09T04:55:48;16.60;99.90
7472;DHT22;3777;48.722;8.110;2022-09-09T04:58:15;16.60;99.90
7472;DHT22;3777;48.722;8.110;2022-09-09T05:00:44;16.60;99.90
7472;DHT22;3777;48.722;8.110;2022-09-09T05:03:11;16.60;99.90
7472;DHT22;3777;48.722;8.110;2022-09-09T05:05:38;16.60;99.90
7472;DHT22;3777;48.722;8.110;2022-09-09T05:08:07;16.60;99.90
7472;DHT22;3777;48.722;8.110;2022-09-09T05:10:37;16.70;99.90
7472;DHT22;3777;48.722;8.110;2022-09-09T05:13:05;16.70;99.90
7472;DHT22;3777;48.722;8.110;2022-09-09T05:15:32;16.70;99.90
7472;DHT22;3777;48.722;8.110;2022-09-09T05:18:01;16.70;99.90
7472;DHT22;3777;48.722;8.110;2022-09-09T05:20:29;16.70;99.90
7472;DHT22;3777;48.722;8.110;2022-09-09T05:22:56;16.60;99.90
7472;DHT22;3777;48.722;8.110;2022-09-09T05:25:23;16.60;99.90
7472;DHT22;3777;48.722;8.110;2022-09-09T05:27:51;16.50;99.90
7472;DHT22;3777;48.722;8.110;2022-09-09T05:30:19;16.50;99.90
7472;DHT22;3777;48.722;8.110;2022-09-09T05:32:46;16.50;99.90
7472;DHT22;3777;48.722;8.110;2022-09-09T05:35:15;16.50;99.90
7472;DHT22;3777;48.722;8.110;2022-09-09T05:37:44;16.60;99.90
7472;DHT22;3777;48.722;8.110;2022-09-09T05:40:12;16.60;99.90
7472;DHT22;3777;48.722;8.110;2022-09-09T05:42:39;16.70;99.90
7472;DHT22;3777;48.722;8.110;2022-09-09T05:45:07;16.80;99.90
7472;DHT22;3777;48.722;8.110;2022-09-09T05:47:34;17.00;99.90
7472;DHT22;3777;48.722;8.110;2022-09-09T05:50:03;17.10;99.90
7472;DHT22;3777;48.722;8.110;2022-09-09T05:52:32;17.20;99.90
7472;DHT22;3777;48.722;8.110;2022-09-09T05:54:59;17.20;99.90
7472;DHT22;3777;48.722;8.110;2022-09-09T05:57:25;17.30;99.90
7472;DHT22;3777;48.722;8.110;2022-09-09T05:59:52;17.40;99.90
7472;DHT22;3777;48.722;8.110;2022-09-09T06:02:20;17.50;99.90
7472;DHT22;3777;48.722;8.110;2022-09-09T06:04:47;17.50;99.90
7472;DHT22;3777;48.722;8.110;2022-09-09T06:07:13;17.60;99.90
7472;DHT22;3777;48.722;8.110;2022-09-09T06:09:42;17.70;99.90
7472;DHT22;3777;48.722;8.110;2022-09-09T06:12:09;17.70;99.90
7472;DHT22;3777;48.722;8.110;2022-09-09T06:14:36;17.80;99.90
7472;DHT22;3777;48.722;8.110;2022-09-09T06:17:03;17.90;99.90
7472;DHT22;3777;48.722;8.110;2022-09-09T06:19:30;18.00;99.90
7472;DHT22;3777;48.722;8.110;2022-09-09T06:21:57;18.10;99.90
7472;DHT22;3777;48.722;8.110;2022-09-09T06:24:25;18.10;99.90
7472;DHT22;3777;48.722;8.110;2022-09-09T06:26:53;18.20;99.90
7472;DHT22;3777;48.722;8.110;2022-09-09T06:29:20;18.30;99.90
7472;DHT22;3777;48.722;8.110;2022-09-09T06:31:47;18.40;99.90
7472;DHT22;3777;48.722;8.110;2022-09-09T06:34:14;18.40;99.90
7472;DHT22;3777;48.722;8.110;2022-09-09T06:36:41;18.50;99.90
7472;DHT22;3777;48.722;8.110;2022-09-09T06:39:08;18.60;99.90
7472;DHT22;3777;48.722;8.110;2022-09-09T06:41:37;18.60;99.90
7472;DHT22;3777;48.722;8.110;2022-09-09T06:44:06;18.70;99.90
7472;DHT22;3777;48.722;8.110;2022-09-09T06:46:33;18.70;99.90
7472;DHT22;3777;48.722;8.110;2022-09-09T06:49:01;18.80;99.90
7472;DHT22;3777;48.722;8.110;2022-09-09T06:51:29;18.80;99.90
7472;DHT22;3777;48.722;8.110;2022-09-09T06:53:58;18.90;99.90
7472;DHT22;3777;48.722;8.110;2022-09-09T06:56:27;19.00;99.90
7472;DHT22;3777;48.722;8.110;2022-09-09T06:58:56;19.00;99.90
7472;DHT22;3777;48.722;8.110;2022-09-09T07:01:26;19.10;99.90
7472;DHT22;3777;48.722;8.110;2022-09-09T07:03:55;19.30;99.90
7472;DHT22;3777;48.722;8.110;2022-09-09T07:06:25;19.50;99.90
7472;DHT22;3777;48.722;8.110;2022-09-09T07:08:54;19.60;99.90
7472;DHT22;3777;48.722;8.110;2022-09-09T07:11:22;19.70;99.90
7472;DHT22;3777;48.722;8.110;2022-09-09T07:13:51;19.80;99.90
7472;DHT22;3777;48.722;8.110;2022-09-09T07:16:19;19.80;99.90
7472;DHT22;3777;48.722;8.110;2022-09-09T07:18:49;19.70;99.90
7472;DHT22;3777;48.722;8.110;2022-09-09T07:21:17;19.60;99.90
7472;DHT22;3777;48.722;8.110;2022-09-09T07:23:44;19.70;99.90
7472;DHT22;3777;48.722;8.110;2022-09-09T07:26:13;19.80;99.90
7472;DHT22;3777;48.722;8.110;2022-09-09T07:28:41;19.90;99.90
7472;DHT22;3777;48.722;8.110;2022-09-09T07:31:14;19.90;99.90
7472;DHT22;3777;48.722;8.110;2022-09-09T07:33:42;19.70;99.90
7472;DHT22;3777;48.722;8.110;2022-09-09T07:36:14;19.60;99.90
7472;DHT22;3777;48.722;8.110;2022-09-09T07:38:42;19.50;99.90
7472;DHT22;3777;48.722;8.110;2022-09-09T07:41:13;19.30;99.90
7472;DHT22;3777;48.722;8.110;2022-09-09T07:43:40;19.30;99.90
7472;DHT22;3777;48.722;8.110;2022-09-09T07:46:09;19.50;99.90
7472;DHT22;3777;48.722;8.110;2022-09-09T07:48:37;19.80;99.90
7472;DHT22;3777;48.722;8.110;2022-09-09T07:51:09;20.10;99.90
7472;DHT22;3777;48.722;8.110;2022-09-09T07:53:38;20.10;99.90
7472;DHT22;3777;48.722;8.110;2022-09-09T07:56:07;20.20;99.90
7472;DHT22;3777;48.722;8.110;2022-09-09T07:58:35;20.10;99.90
7472;DHT22;3777;48.722;8.110;2022-09-09T08:01:07;20.20;99.90
7472;DHT22;3777;48.722;8.110;2022-09-09T08:03:35;20.30;99.90
7472;DHT22;3777;48.722;8.110;2022-09-09T08:06:02;20.60;99.90
7472;DHT22;3777;48.722;8.110;2022-09-09T08:08:30;20.80;99.90
7472;DHT22;3777;48.722;8.110;2022-09-09T08:11:07;20.90;99.90
7472;DHT22;3777;48.722;8.110;2022-09-09T08:13:35;21.00;99.90
7472;DHT22;3777;48.722;8.110;2022-09-09T08:16:06;21.10;99.90
7472;DHT22;3777;48.722;8.110;2022-09-09T08:18:33;21.30;99.90
7472;DHT22;3777;48.722;8.110;2022-09-09T08:21:09;21.50;99.90
7472;DHT22;3777;48.722;8.110;2022-09-09T08:23:37;21.60;99.90
7472;DHT22;3777;48.722;8.110;2022-09-09T08:26:09;21.70;99.90
7472;DHT22;3777;48.722;8.110;2022-09-09T08:28:37;21.90;99.90
7472;DHT22;3777;48.722;8.110;2022-09-09T08:31:10;22.10;99.90
7472;DHT22;3777;48.722;8.110;2022-09-09T08:33:37;22.30;99.90
7472;DHT22;3777;48.722;8.110;2022-09-09T08:36:06;22.50;99.90
7472;DHT22;3777;48.722;8.110;2022-09-09T08:38:35;22.60;99.90
7472;DHT22;3777;48.722;8.110;2022-09-09T08:44:10;22.60;99.90
7472;DHT22;3777;48.722;8.110;2022-09-09T08:46:46;22.70;99.90
7472;DHT22;3777;48.722;8.110;2022-09-09T08:49:27;22.70;99.90
7472;DHT22;3777;48.722;8.110;2022-09-09T08:52:00;22.80;99.90
7472;DHT22;3777;48.722;8.110;2022-09-09T08:54:31;22.90;99.90
7472;DHT22;3777;48.722;8.110;2022-09-09T08:57:00;23.10;99.90
7472;DHT22;3777;48.722;8.110;2022-09-09T08:59:28;23.30;99.90
7472;DHT22;3777;48.722;8.110;2022-09-09T09:02:02;23.40;99.90
7472;DHT22;3777;48.722;8.110;2022-09-09T09:04:56;23.30;99.90
7472;DHT22;3777;48.722;8.110;2022-09-09T09:07:33;23.00;99.90
7472;DHT22;3777;48.722;8.110;2022-09-09T09:10:12;22.90;99.90
7472;DHT22;3777;48.722;8.110;2022-09-09T09:12:42;22.90;99.90
7472;DHT22;3777;48.722;8.110;2022-09-09T09:15:18;23.00;99.90
7472;DHT22;3777;48.722;8.110;2022-09-09T09:17:46;22.80;99.90
7472;DHT22;3777;48.722;8.110;2022-09-09T09:20:15;23.10;99.90
7472;DHT22;3777;48.722;8.110;2022-09-09T09:22:47;23.20;99.90
7472;DHT22;3777;48.722;8.110;2022-09-09T09:25:18;23.20;99.90
7472;DHT22;3777;48.722;8.110;2022-09-09T09:27:50;23.20;99.90
7472;DHT22;3777;48.722;8.110;2022-09-09T09:30:23;23.20;99.90
7472;DHT22;3777;48.722;8.110;2022-09-09T09:32:54;23.20;99.90
7472;DHT22;3777;48.722;8.110;2022-09-09T09:35:21;23.20;99.90
7472;DHT22;3777;48.722;8.110;2022-09-09T09:37:49;23.10;99.90
7472;DHT22;3777;48.722;8.110;2022-09-09T09:40:18;22.90;99.90
7472;DHT22;3777;48.722;8.110;2022-09-09T09:42:51;22.60;99.90
7472;DHT22;3777;48.722;8.110;2022-09-09T09:45:27;22.30;99.90
7472;DHT22;3777;48.722;8.110;2022-09-09T09:47:59;22.00;99.90
7472;DHT22;3777;48.722;8.110;2022-09-09T09:50:27;21.90;99.90
7472;DHT22;3777;48.722;8.110;2022-09-09T09:52:56;21.60;99.90
7472;DHT22;3777;48.722;8.110;2022-09-09T09:55:25;21.50;99.90
7472;DHT22;3777;48.722;8.110;2022-09-09T09:57:53;21.40;99.90
7472;DHT22;3777;48.722;8.110;2022-09-09T10:00:22;21.30;99.90
7472;DHT22;3777;48.722;8.110;2022-09-09T10:02:51;21.40;99.90
7472;DHT22;3777;48.722;8.110;2022-09-09T10:05:20;22.00;99.90
7472;DHT22;3777;48.722;8.110;2022-09-09T10:08:00;22.50;99.90
7472;DHT22;3777;48.722;8.110;2022-09-09T10:10:36;22.90;99.90
7472;DHT22;3777;48.722;8.110;2022-09-09T10:13:10;23.40;99.90
7472;DHT22;3777;48.722;8.110;2022-09-09T10:15:44;23.70;99.90
7472;DHT22;3777;48.722;8.110;2022-09-09T10:18:33;23.60;99.90
7472;DHT22;3777;48.722;8.110;2022-09-09T10:21:10;23.50;99.90
7472;DHT22;3777;48.722;8.110;2022-09-09T10:23:57;23.30;99.90
7472;DHT22;3777;48.722;8.110;2022-09-09T10:26:38;23.20;99.90
7472;DHT22;3777;48.722;8.110;2022-09-09T10:29:22;23.10;99.90
7472;DHT22;3777;48.722;8.110;2022-09-09T10:31:57;23.00;99.90
7472;DHT22;3777;48.722;8.110;2022-09-09T10:34:43;23.10;99.90
7472;DHT22;3777;48.722;8.110;2022-09-09T10:37:27;23.20;99.90
7472;DHT22;3777;48.722;8.110;2022-09-09T10:40:02;23.10;99.90
7472;DHT22;3777;48.722;8.110;2022-09-09T10:42:32;23.40;99.90
7472;DHT22;3777;48.722;8.110;2022-09-09T10:45:13;22.60;99.90
7472;DHT22;3777;48.722;8.110;2022-09-09T10:50:51;23.70;99.90
7472;DHT22;3777;48.722;8.110;2022-09-09T10:53:28;23.30;99.90
7472;DHT22;3777;48.722;8.110;2022-09-09T10:56:00;23.00;99.90
7472;DHT22;3777;48.722;8.110;2022-09-09T10:58:31;22.50;99.90
7472;DHT22;3777;48.722;8.110;2022-09-09T11:01:08;21.90;99.90
7472;DHT22;3777;48.722;8.110;2022-09-09T11:03:39;21.40;99.90
7472;DHT22;3777;48.722;8.110;2022-09-09T11:06:12;21.10;99.90
7472;DHT22;3777;48.722;8.110;2022-09-09T11:08:40;21.50;99.90
7472;DHT22;3777;48.722;8.110;2022-09-09T11:11:12;22.50;99.90
7472;DHT22;3777;48.722;8.110;2022-09-09T11:13:45;23.00;99.90
7472;DHT22;3777;48.722;8.110;2022-09-09T11:16:22;23.60;99.90
7472;DHT22;3777;48.722;8.110;2022-09-09T11:18:57;23.60;99.90
7472;DHT22;3777;48.722;8.110;2022-09-09T11:21:28;23.70;99.90
7472;DHT22;3777;48.722;8.110;2022-09-09T11:24:01;23.50;99.90
7472;DHT22;3777;48.722;8.110;2022-09-09T11:26:33;23.30;99.90
7472;DHT22;3777;48.722;8.110;2022-09-09T11:29:19;23.40;99.90
7472;DHT22;3777;48.722;8.110;2022-09-09T11:32:00;23.30;99.90
7472;DHT22;3777;48.722;8.110;2022-09-09T11:34:41;23.00;99.90
7472;DHT22;3777;48.722;8.110;2022-09-09T11:37:22;22.60;99.90
7472;DHT22;3777;48.722;8.110;2022-09-09T11:42:46;22.90;99.90
7472;DHT22;3777;48.722;8.110;2022-09-09T11:45:24;22.80;99.90
7472;DHT22;3777;48.722;8.110;2022-09-09T11:47:55;22.80;99.90
7472;DHT22;3777;48.722;8.110;2022-09-09T11:50:33;23.00;99.90
7472;DHT22;3777;48.722;8.110;2022-09-09T11:53:23;23.20;99.90
7472;DHT22;3777;48.722;8.110;2022-09-09T11:56:12;23.40;99.90
7472;DHT22;3777;48.722;8.110;2022-09-09T11:58:54;23.50;99.90
7472;DHT22;3777;48.722;8.110;2022-09-09T12:01:34;23.60;99.90
7472;DHT22;3777;48.722;8.110;2022-09-09T12:04:10;23.50;99.90
7472;DHT22;3777;48.722;8.110;2022-09-09T12:06:43;23.50;99.90
7472;DHT22;3777;48.722;8.110;2022-09-09T12:09:19;23.20;99.90
7472;DHT22;3777;48.722;8.110;2022-09-09T12:11:50;23.20;99.90
7472;DHT22;3777;48.722;8.110;2022-09-09T12:14:21;23.00;99.90
7472;DHT22;3777;48.722;8.110;2022-09-09T12:16:49;23.00;99.90
7472;DHT22;3777;48.722;8.110;2022-09-09T12:19:19;23.10;99.90
7472;DHT22;3777;48.722;8.110;2022-09-09T12:21:54;22.80;99.90
7472;DHT22;3777;48.722;8.110;2022-09-09T12:24:32;23.00;99.90
7472;DHT22;3777;48.722;8.110;2022-09-09T12:27:07;23.30;99.90
7472;DHT22;3777;48.722;8.110;2022-09-09T12:29:42;23.50;99.90
7472;DHT22;3777;48.722;8.110;2022-09-09T12:32:14;23.50;99.90
7472;DHT22;3777;48.722;8.110;2022-09-09T12:34:46;23.60;99.90
7472;DHT22;3777;48.722;8.110;2022-09-09T12:37:21;23.70;99.90
7472;DHT22;3777;48.722;8.110;2022-09-09T12:39:55;23.80;99.90
7472;DHT22;3777;48.722;8.110;2022-09-09T12:42:24;23.90;99.90
7472;DHT22;3777;48.722;8.110;2022-09-09T12:44:56;24.00;99.90
7472;DHT22;3777;48.722;8.110;2022-09-09T12:47:35;24.10;99.90
7472;DHT22;3777;48.722;8.110;2022-09-09T12:50:03;24.10;99.90
7472;DHT22;3777;48.722;8.110;2022-09-09T12:52:32;24.20;99.90
7472;DHT22;3777;48.722;8.110;2022-09-09T12:55:05;24.20;99.90
7472;DHT22;3777;48.722;8.110;2022-09-09T12:57:36;23.90;99.90
7472;DHT22;3777;48.722;8.110;2022-09-09T13:00:07;24.00;99.90
7472;DHT22;3777;48.722;8.110;2022-09-09T13:02:45;24.00;99.90
7472;DHT22;3777;48.722;8.110;2022-09-09T13:05:15;24.00;99.90
7472;DHT22;3777;48.722;8.110;2022-09-09T13:07:43;24.10;99.90
7472;DHT22;3777;48.722;8.110;2022-09-09T13:10:13;24.10;99.90
7472;DHT22;3777;48.722;8.110;2022-09-09T13:12:42;24.10;99.90
7472;DHT22;3777;48.722;8.110;2022-09-09T13:15:20;23.80;99.90
7472;DHT22;3777;48.722;8.110;2022-09-09T13:17:56;23.40;99.90
7472;DHT22;3777;48.722;8.110;2022-09-09T13:20:25;23.30;99.90
7472;DHT22;3777;48.722;8.110;2022-09-09T13:22:53;23.10;99.90
7472;DHT22;3777;48.722;8.110;2022-09-09T13:25:25;23.30;99.90
7472;DHT22;3777;48.722;8.110;2022-09-09T13:28:00;23.40;99.90
7472;DHT22;3777;48.722;8.110;2022-09-09T13:30:29;23.20;99.90
7472;DHT22;3777;48.722;8.110;2022-09-09T13:33:06;23.10;99.90
7472;DHT22;3777;48.722;8.110;2022-09-09T13:35:33;22.80;99.90
7472;DHT22;3777;48.722;8.110;2022-09-09T13:38:07;22.60;99.90
7472;DHT22;3777;48.722;8.110;2022-09-09T13:40:37;22.40;99.90
7472;DHT22;3777;48.722;8.110;2022-09-09T13:43:04;22.30;99.90
7472;DHT22;3777;48.722;8.110;2022-09-09T13:45:32;22.40;99.90
7472;DHT22;3777;48.722;8.110;2022-09-09T13:48:09;22.30;99.90
7472;DHT22;3777;48.722;8.110;2022-09-09T13:50:37;22.20;99.90
7472;DHT22;3777;48.722;8.110;2022-09-09T13:53:04;22.30;99.90
7472;DHT22;3777;48.722;8.110;2022-09-09T13:55:31;22.30;99.90
7472;DHT22;3777;48.722;8.110;2022-09-09T13:58:01;22.30;99.90
7472;DHT22;3777;48.722;8.110;2022-09-09T14:00:29;22.40;99.90
7472;DHT22;3777;48.722;8.110;2022-09-09T14:02:56;22.50;99.90
7472;DHT22;3777;48.722;8.110;2022-09-09T14:05:24;22.60;99.90
7472;DHT22;3777;48.722;8.110;2022-09-09T14:07:51;22.70;99.90
7472;DHT22;3777;48.722;8.110;2022-09-09T14:10:18;22.90;99.90
7472;DHT22;3777;48.722;8.110;2022-09-09T14:12:45;23.00;99.90
7472;DHT22;3777;48.722;8.110;2022-09-09T14:15:14;23.20;99.90
7472;DHT22;3777;48.722;8.110;2022-09-09T14:17:41;23.20;99.90
7472;DHT22;3777;48.722;8.110;2022-09-09T14:20:09;23.10;99.90
7472;DHT22;3777;48.722;8.110;2022-09-09T14:22:37;23.40;99.90
7472;DHT22;3777;48.722;8.110;2022-09-09T14:25:07;23.60;99.90
7472;DHT22;3777;48.722;8.110;2022-09-09T14:27:34;23.70;99.90
7472;DHT22;3777;48.722;8.110;2022-09-09T14:30:01;23.80;99.90
7472;DHT22;3777;48.722;8.110;2022-09-09T14:32:29;23.80;99.90
7472;DHT22;3777;48.722;8.110;2022-09-09T14:34:57;23.80;99.90
7472;DHT22;3777;48.722;8.110;2022-09-09T14:37:24;23.70;99.90
7472;DHT22;3777;48.722;8.110;2022-09-09T14:39:51;23.50;99.90
7472;DHT22;3777;48.722;8.110;2022-09-09T14:42:19;23.40;99.90
7472;DHT22;3777;48.722;8.110;2022-09-09T14:44:46;23.30;99.90
7472;DHT22;3777;48.722;8.110;2022-09-09T14:47:14;23.10;99.90
7472;DHT22;3777;48.722;8.110;2022-09-09T14:49:42;22.90;99.90
7472;DHT22;3777;48.722;8.110;2022-09-09T14:52:10;22.50;99.90
7472;DHT22;3777;48.722;8.110;2022-09-09T14:54:37;22.10;99.90
7472;DHT22;3777;48.722;8.110;2022-09-09T14:57:04;21.70;99.90
7472;DHT22;3777;48.722;8.110;2022-09-09T14:59:30;21.30;99.90
7472;DHT22;3777;48.722;8.110;2022-09-09T15:01:57;20.90;99.90
7472;DHT22;3777;48.722;8.110;2022-09-09T15:04:29;20.60;99.90
7472;DHT22;3777;48.722;8.110;2022-09-09T15:06:58;20.30;99.90
7472;DHT22;3777;48.722;8.110;2022-09-09T15:09:25;20.10;99.90
7472;DHT22;3777;48.722;8.110;2022-09-09T15:11:51;20.00;99.90
7472;DHT22;3777;48.722;8.110;2022-09-09T15:14:18;19.90;99.90
7472;DHT22;3777;48.722;8.110;2022-09-09T15:16:46;19.80;99.90
7472;DHT22;3777;48.722;8.110;2022-09-09T15:19:13;19.70;99.90
7472;DHT22;3777;48.722;8.110;2022-09-09T15:21:40;19.70;99.90
7472;DHT22;3777;48.722;8.110;2022-09-09T15:24:08;19.70;99.90
7472;DHT22;3777;48.722;8.110;2022-09-09T15:26:36;19.50;99.90
7472;DHT22;3777;48.722;8.110;2022-09-09T15:29:04;19.00;99.90
7472;DHT22;3777;48.722;8.110;2022-09-09T15:31:32;18.90;99.90
7472;DHT22;3777;48.722;8.110;2022-09-09T15:34:01;18.70;99.90
7472;DHT22;3777;48.722;8.110;2022-09-09T15:36:30;18.60;99.90
7472;DHT22;3777;48.722;8.110;2022-09-09T15:38:57;18.40;99.90
7472;DHT22;3777;48.722;8.110;2022-09-09T15:41:26;18.40;99.90
7472;DHT22;3777;48.722;8.110;2022-09-09T15:43:55;18.50;99.90
7472;DHT22;3777;48.722;8.110;2022-09-09T15:46:28;18.60;99.90
7472;DHT22;3777;48.722;8.110;2022-09-09T15:48:57;18.60;99.90
7472;DHT22;3777;48.722;8.110;2022-09-09T15:51:25;18.80;99.90
7472;DHT22;3777;48.722;8.110;2022-09-09T15:53:57;18.70;99.90
7472;DHT22;3777;48.722;8.110;2022-09-09T15:56:27;18.80;99.90
7472;DHT22;3777;48.722;8.110;2022-09-09T15:58:56;18.60;99.90
7472;DHT22;3777;48.722;8.110;2022-09-09T16:01:24;18.50;99.90
7472;DHT22;3777;48.722;8.110;2022-09-09T16:03:51;18.60;99.90
7472;DHT22;3777;48.722;8.110;2022-09-09T16:06:19;18.60;99.90
7472;DHT22;3777;48.722;8.110;2022-09-09T16:08:49;18.60;99.90
7472;DHT22;3777;48.722;8.110;2022-09-09T16:11:18;18.70;99.90
7472;DHT22;3777;48.722;8.110;2022-09-09T16:13:49;18.70;99.90
7472;DHT22;3777;48.722;8.110;2022-09-09T16:16:17;18.80;99.90
7472;DHT22;3777;48.722;8.110;2022-09-09T16:18:47;18.80;99.90
7472;DHT22;3777;48.722;8.110;2022-09-09T16:21:16;18.70;99.90
7472;DHT22;3777;48.722;8.110;2022-09-09T16:23:44;18.50;99.90
7472;DHT22;3777;48.722;8.110;2022-09-09T16:26:12;18.50;99.90
7472;DHT22;3777;48.722;8.110;2022-09-09T16:28:40;18.50;99.90
7472;DHT22;3777;48.722;8.110;2022-09-09T16:31:10;18.50;99.90
7472;DHT22;3777;48.722;8.110;2022-09-09T16:33:37;18.70;99.90